Turnov, Czech Republic
Current Conditions -  °F | °C
As of 2:00 AM on Tuesday 23 Dec 2014 (Local Time) from LKKB Reporting Station
Overcast Overcast  
Wind Chill: 38°   Ceiling: 2000
Heat Index: 46°   Visibility: 6mi
Dew Point: 39°   Wind: 23mph
Humidity: 76%   Direction: 250°WSW
Pressure: 30.03"   Gusts: NA
Location:  50.6°N, 15.14°E
Report Text: LKKB 230000Z 25020KT 9999 BKN020 OVC032 08/04 Q1017
Loading
Personal Weather Stations






























Interactive Weather Map New forecast layout! Learn more

10-Day Weather Forecast

Advertisements
Track Severe Weather on mobile